sensor_id;sensor_type;location;lat;lon;timestamp;pressure;altitude;pressure_sealevel;temperature
72675;BMP280;60752;53.962;9.614;2023-01-10T00:00:57;100467.47;;;5.93
72675;BMP280;60752;53.962;9.614;2023-01-10T00:06:19;100467.72;;;5.92
72675;BMP280;60752;53.962;9.614;2023-01-10T00:11:20;100475.19;;;5.88
72675;BMP280;60752;53.962;9.614;2023-01-10T00:16:25;100484.78;;;5.88
72675;BMP280;60752;53.962;9.614;2023-01-10T00:21:31;100499.31;;;5.84
72675;BMP280;60752;53.962;9.614;2023-01-10T00:26:32;100504.63;;;5.77
72675;BMP280;60752;53.962;9.614;2023-01-10T00:31:33;100512.44;;;5.77
72675;BMP280;60752;53.962;9.614;2023-01-10T00:36:39;100523.84;;;5.76
72675;BMP280;60752;53.962;9.614;2023-01-10T00:41:43;100537.06;;;5.75
72675;BMP280;60752;53.962;9.614;2023-01-10T00:46:52;100547.44;;;5.75
72675;BMP280;60752;53.962;9.614;2023-01-10T00:51:57;100557.28;;;5.73
72675;BMP280;60752;53.962;9.614;2023-01-10T00:57:00;100555.88;;;5.65
72675;BMP280;60752;53.962;9.614;2023-01-10T01:02:03;100556.34;;;5.62
72675;BMP280;60752;53.962;9.614;2023-01-10T01:07:07;100574.03;;;5.65
72675;BMP280;60752;53.962;9.614;2023-01-10T01:12:11;100591.75;;;5.68
72675;BMP280;60752;53.962;9.614;2023-01-10T01:17:11;100591.13;;;5.61
72675;BMP280;60752;53.962;9.614;2023-01-10T01:22:21;100609.91;;;5.51
72675;BMP280;60752;53.962;9.614;2023-01-10T01:27:21;100619.25;;;5.52
72675;BMP280;60752;53.962;9.614;2023-01-10T01:32:24;100627.03;;;5.52
72675;BMP280;60752;53.962;9.614;2023-01-10T01:37:29;100640.81;;;5.53
72675;BMP280;60752;53.962;9.614;2023-01-10T01:42:42;100649.84;;;5.50
72675;BMP280;60752;53.962;9.614;2023-01-10T01:47:48;100657.22;;;5.42
72675;BMP280;60752;53.962;9.614;2023-01-10T01:52:56;100683.34;;;5.52
72675;BMP280;60752;53.962;9.614;2023-01-10T01:58:04;100684.81;;;5.48
72675;BMP280;60752;53.962;9.614;2023-01-10T02:03:11;100694.91;;;5.44
72675;BMP280;60752;53.962;9.614;2023-01-10T02:08:20;100706.53;;;5.42
72675;BMP280;60752;53.962;9.614;2023-01-10T02:13:23;100714.00;;;5.38
72675;BMP280;60752;53.962;9.614;2023-01-10T02:18:31;100727.75;;;5.38
72675;BMP280;60752;53.962;9.614;2023-01-10T02:35:07;100736.22;;;5.34
72675;BMP280;60752;53.962;9.614;2023-01-10T02:40:14;100739.34;;;5.36
72675;BMP280;60752;53.962;9.614;2023-01-10T02:45:22;100749.72;;;5.36
72675;BMP280;60752;53.962;9.614;2023-01-10T02:50:43;100746.59;;;5.34
72675;BMP280;60752;53.962;9.614;2023-01-10T02:55:59;100753.69;;;5.38
72675;BMP280;60752;53.962;9.614;2023-01-10T03:01:06;100761.78;;;5.42
72675;BMP280;60752;53.962;9.614;2023-01-10T03:06:37;100770.38;;;5.43
72675;BMP280;60752;53.962;9.614;2023-01-10T03:11:40;100759.81;;;5.32
72675;BMP280;60752;53.962;9.614;2023-01-10T03:16:46;100782.66;;;5.35
72675;BMP280;60752;53.962;9.614;2023-01-10T03:21:53;100792.50;;;5.33
72675;BMP280;60752;53.962;9.614;2023-01-10T03:26:57;100799.84;;;5.25
72675;BMP280;60752;53.962;9.614;2023-01-10T03:32:01;100799.53;;;5.21
72675;BMP280;60752;53.962;9.614;2023-01-10T03:37:09;100807.31;;;5.21
72675;BMP280;60752;53.962;9.614;2023-01-10T03:42:16;100833.16;;;5.16
72675;BMP280;60752;53.962;9.614;2023-01-10T03:47:24;100844.53;;;5.15
72675;BMP280;60752;53.962;9.614;2023-01-10T03:52:28;100871.34;;;5.21
72675;BMP280;60752;53.962;9.614;2023-01-10T03:57:29;100856.00;;;5.19
72675;BMP280;60752;53.962;9.614;2023-01-10T04:02:30;100878.69;;;5.12
72675;BMP280;60752;53.962;9.614;2023-01-10T04:07:32;100872.06;;;5.16
72675;BMP280;60752;53.962;9.614;2023-01-10T04:12:33;100879.25;;;5.14
72675;BMP280;60752;53.962;9.614;2023-01-10T04:17:33;100874.88;;;5.15
72675;BMP280;60752;53.962;9.614;2023-01-10T04:22:35;100883.22;;;5.17
72675;BMP280;60752;53.962;9.614;2023-01-10T04:27:35;100895.81;;;5.13
72675;BMP280;60752;53.962;9.614;2023-01-10T04:32:36;100899.19;;;5.14
72675;BMP280;60752;53.962;9.614;2023-01-10T04:37:37;100918.03;;;5.21
72675;BMP280;60752;53.962;9.614;2023-01-10T04:42:38;100928.19;;;5.22
72675;BMP280;60752;53.962;9.614;2023-01-10T04:47:38;100942.31;;;5.26
72675;BMP280;60752;53.962;9.614;2023-01-10T04:52:40;100948.72;;;5.24
72675;BMP280;60752;53.962;9.614;2023-01-10T04:57:40;100958.19;;;5.30
72675;BMP280;60752;53.962;9.614;2023-01-10T05:02:41;100957.28;;;5.24
72675;BMP280;60752;53.962;9.614;2023-01-10T05:07:44;100960.91;;;5.23
72675;BMP280;60752;53.962;9.614;2023-01-10T05:12:45;100981.00;;;5.28
72675;BMP280;60752;53.962;9.614;2023-01-10T05:17:46;100976.22;;;5.25
72675;BMP280;60752;53.962;9.614;2023-01-10T05:22:47;101003.09;;;5.30
72675;BMP280;60752;53.962;9.614;2023-01-10T05:27:48;101008.97;;;5.26
72675;BMP280;60752;53.962;9.614;2023-01-10T05:32:48;101023.06;;;5.30
72675;BMP280;60752;53.962;9.614;2023-01-10T05:37:50;101031.94;;;5.22
72675;BMP280;60752;53.962;9.614;2023-01-10T05:42:50;101039.28;;;5.25
72675;BMP280;60752;53.962;9.614;2023-01-10T05:47:51;101039.84;;;5.16
72675;BMP280;60752;53.962;9.614;2023-01-10T05:52:52;101036.88;;;5.12
72675;BMP280;60752;53.962;9.614;2023-01-10T05:57:53;101055.19;;;5.17
72675;BMP280;60752;53.962;9.614;2023-01-10T06:02:54;101048.91;;;5.06
72675;BMP280;60752;53.962;9.614;2023-01-10T06:07:56;101072.19;;;5.13
72675;BMP280;60752;53.962;9.614;2023-01-10T06:12:56;101079.81;;;5.08
72675;BMP280;60752;53.962;9.614;2023-01-10T06:23:41;101096.09;;;5.03
72675;BMP280;60752;53.962;9.614;2023-01-10T06:28:41;101112.19;;;5.05
72675;BMP280;60752;53.962;9.614;2023-01-10T06:33:42;101112.06;;;5.00
72675;BMP280;60752;53.962;9.614;2023-01-10T06:38:44;101119.84;;;5.00
72675;BMP280;60752;53.962;9.614;2023-01-10T06:43:45;101128.78;;;5.04
72675;BMP280;60752;53.962;9.614;2023-01-10T06:48:46;101128.06;;;4.97
72675;BMP280;60752;53.962;9.614;2023-01-10T06:53:48;101136.03;;;4.96
72675;BMP280;60752;53.962;9.614;2023-01-10T06:58:48;101143.47;;;4.92
72675;BMP280;60752;53.962;9.614;2023-01-10T07:03:49;101146.06;;;4.92
72675;BMP280;60752;53.962;9.614;2023-01-10T07:08:54;101148.44;;;4.94
72675;BMP280;60752;53.962;9.614;2023-01-10T07:13:54;101156.44;;;4.92
72675;BMP280;60752;53.962;9.614;2023-01-10T07:18:55;101173.00;;;4.91
72675;BMP280;60752;53.962;9.614;2023-01-10T07:23:56;101178.84;;;4.87
72675;BMP280;60752;53.962;9.614;2023-01-10T07:28:57;101168.41;;;4.75
72675;BMP280;60752;53.962;9.614;2023-01-10T07:33:57;101159.47;;;4.71
72675;BMP280;60752;53.962;9.614;2023-01-10T07:38:59;101176.03;;;4.70
72675;BMP280;60752;53.962;9.614;2023-01-10T07:43:59;101176.50;;;4.60
72675;BMP280;60752;53.962;9.614;2023-01-10T07:49:00;101181.84;;;4.65
72675;BMP280;60752;53.962;9.614;2023-01-10T07:54:02;101174.50;;;4.62
72675;BMP280;60752;53.962;9.614;2023-01-10T07:59:02;101187.81;;;4.66
72675;BMP280;60752;53.962;9.614;2023-01-10T08:04:03;101174.28;;;4.64
72675;BMP280;60752;53.962;9.614;2023-01-10T08:09:04;101181.84;;;4.65
72675;BMP280;60752;53.962;9.614;2023-01-10T08:14:05;101199.75;;;4.67
72675;BMP280;60752;53.962;9.614;2023-01-10T08:19:05;101202.75;;;4.70
72675;BMP280;60752;53.962;9.614;2023-01-10T08:24:07;101210.91;;;4.67
72675;BMP280;60752;53.962;9.614;2023-01-10T08:29:08;101227.25;;;4.74
72675;BMP280;60752;53.962;9.614;2023-01-10T08:34:08;101212.47;;;4.75
72675;BMP280;60752;53.962;9.614;2023-01-10T08:39:10;101243.22;;;4.90
72675;BMP280;60752;53.962;9.614;2023-01-10T08:44:11;101246.38;;;4.92
72675;BMP280;60752;53.962;9.614;2023-01-10T08:49:11;101251.75;;;4.97
72675;BMP280;60752;53.962;9.614;2023-01-10T08:54:13;101228.25;;;4.92
72675;BMP280;60752;53.962;9.614;2023-01-10T08:59:15;101220.97;;;5.00
72675;BMP280;60752;53.962;9.614;2023-01-10T09:04:15;101223.56;;;5.00
72675;BMP280;60752;53.962;9.614;2023-01-10T09:09:17;101228.47;;;5.08
72675;BMP280;60752;53.962;9.614;2023-01-10T09:14:17;101246.97;;;5.12
72675;BMP280;60752;53.962;9.614;2023-01-10T09:19:18;101245.59;;;5.09
72675;BMP280;60752;53.962;9.614;2023-01-10T09:24:19;101249.34;;;5.14
72675;BMP280;60752;53.962;9.614;2023-01-10T09:29:20;101276.38;;;5.24
72675;BMP280;60752;53.962;9.614;2023-01-10T09:34:20;101286.69;;;5.31
72675;BMP280;60752;53.962;9.614;2023-01-10T09:39:22;101284.53;;;5.28
72675;BMP280;60752;53.962;9.614;2023-01-10T09:44:29;101309.84;;;5.32
72675;BMP280;60752;53.962;9.614;2023-01-10T09:49:43;101293.91;;;5.29
72675;BMP280;60752;53.962;9.614;2023-01-10T09:54:49;101304.66;;;5.32
72675;BMP280;60752;53.962;9.614;2023-01-10T09:59:52;101319.19;;;5.33
72675;BMP280;60752;53.962;9.614;2023-01-10T10:05:03;101332.16;;;5.33
72675;BMP280;60752;53.962;9.614;2023-01-10T10:10:11;101314.78;;;5.34
72675;BMP280;60752;53.962;9.614;2023-01-10T10:15:22;101317.16;;;5.54
72675;BMP280;60752;53.962;9.614;2023-01-10T10:20:45;101301.47;;;5.60
72675;BMP280;60752;53.962;9.614;2023-01-10T10:26:00;101301.72;;;5.59
72675;BMP280;60752;53.962;9.614;2023-01-10T10:31:05;101309.28;;;5.60
72675;BMP280;60752;53.962;9.614;2023-01-10T10:36:18;101324.13;;;5.72
72675;BMP280;60752;53.962;9.614;2023-01-10T10:41:29;101330.16;;;5.72
72675;BMP280;60752;53.962;9.614;2023-01-10T10:46:31;101329.09;;;5.73
72675;BMP280;60752;53.962;9.614;2023-01-10T10:51:37;101319.16;;;5.70
72675;BMP280;60752;53.962;9.614;2023-01-10T10:56:40;101328.53;;;5.71
72675;BMP280;60752;53.962;9.614;2023-01-10T11:01:40;101340.44;;;5.79
72675;BMP280;60752;53.962;9.614;2023-01-10T11:06:41;101330.94;;;6.03
72675;BMP280;60752;53.962;9.614;2023-01-10T11:11:45;101337.84;;;6.09
72675;BMP280;60752;53.962;9.614;2023-01-10T11:16:46;101334.22;;;5.98
72675;BMP280;60752;53.962;9.614;2023-01-10T11:21:53;101335.22;;;5.97
72675;BMP280;60752;53.962;9.614;2023-01-10T11:26:57;101334.84;;;5.93
72675;BMP280;60752;53.962;9.614;2023-01-10T11:32:07;101342.06;;;5.91
72675;BMP280;60752;53.962;9.614;2023-01-10T11:37:17;101354.63;;;5.94
72675;BMP280;60752;53.962;9.614;2023-01-10T11:42:29;101359.38;;;5.97
72675;BMP280;60752;53.962;9.614;2023-01-10T11:47:32;101346.81;;;5.94
72675;BMP280;60752;53.962;9.614;2023-01-10T11:52:33;101338.50;;;6.04
72675;BMP280;60752;53.962;9.614;2023-01-10T11:57:40;101325.09;;;6.07
72675;BMP280;60752;53.962;9.614;2023-01-10T12:02:43;101320.88;;;6.06
72675;BMP280;60752;53.962;9.614;2023-01-10T12:07:54;101339.97;;;6.12
72675;BMP280;60752;53.962;9.614;2023-01-10T12:12:58;101337.84;;;6.09
72675;BMP280;60752;53.962;9.614;2023-01-10T12:18:01;101342.72;;;6.17
72675;BMP280;60752;53.962;9.614;2023-01-10T12:23:06;101326.44;;;6.10
72675;BMP280;60752;53.962;9.614;2023-01-10T12:28:23;101332.47;;;6.22
72675;BMP280;60752;53.962;9.614;2023-01-10T12:33:34;101327.28;;;6.22
72675;BMP280;60752;53.962;9.614;2023-01-10T12:38:39;101331.13;;;6.31
72675;BMP280;60752;53.962;9.614;2023-01-10T12:43:44;101313.59;;;6.26
72675;BMP280;60752;53.962;9.614;2023-01-10T12:54:11;101328.19;;;6.39
72675;BMP280;60752;53.962;9.614;2023-01-10T12:59:21;101334.78;;;6.42
72675;BMP280;60752;53.962;9.614;2023-01-10T13:04:24;101315.09;;;6.34
72675;BMP280;60752;53.962;9.614;2023-01-10T13:09:29;101320.97;;;6.41
72675;BMP280;60752;53.962;9.614;2023-01-10T13:14:36;101321.78;;;6.42
72675;BMP280;60752;53.962;9.614;2023-01-10T13:19:40;101318.72;;;6.45
72675;BMP280;60752;53.962;9.614;2023-01-10T13:24:54;101316.81;;;6.52
72675;BMP280;60752;53.962;9.614;2023-01-10T13:30:03;101310.03;;;6.51
72675;BMP280;60752;53.962;9.614;2023-01-10T13:35:17;101327.66;;;6.61
72675;BMP280;60752;53.962;9.614;2023-01-10T13:40:20;101318.19;;;6.54
72675;BMP280;60752;53.962;9.614;2023-01-10T13:45:28;101329.94;;;6.57
72675;BMP280;60752;53.962;9.614;2023-01-10T13:50:50;101322.47;;;6.61
72675;BMP280;60752;53.962;9.614;2023-01-10T13:55:54;101324.47;;;6.59
72675;BMP280;60752;53.962;9.614;2023-01-10T14:00:59;101330.28;;;6.61
72675;BMP280;60752;53.962;9.614;2023-01-10T14:06:09;101318.72;;;6.45
72675;BMP280;60752;53.962;9.614;2023-01-10T14:11:11;101329.38;;;6.55
72675;BMP280;60752;53.962;9.614;2023-01-10T14:16:28;101327.31;;;6.45
72675;BMP280;60752;53.962;9.614;2023-01-10T14:21:39;101333.09;;;6.47
72675;BMP280;60752;53.962;9.614;2023-01-10T14:26:42;101323.13;;;6.44
72675;BMP280;60752;53.962;9.614;2023-01-10T14:31:48;101288.78;;;6.31
72675;BMP280;60752;53.962;9.614;2023-01-10T14:36:55;101307.78;;;6.43
72675;BMP280;60752;53.962;9.614;2023-01-10T14:42:13;101297.38;;;6.43
72675;BMP280;60752;53.962;9.614;2023-01-10T14:47:29;101276.75;;;6.30
72675;BMP280;60752;53.962;9.614;2023-01-10T14:52:35;101281.97;;;6.30
72675;BMP280;60752;53.962;9.614;2023-01-10T14:57:35;101282.56;;;6.32
72675;BMP280;60752;53.962;9.614;2023-01-10T15:02:49;101280.38;;;6.29
72675;BMP280;60752;53.962;9.614;2023-01-10T15:07:54;101272.25;;;6.25
72675;BMP280;60752;53.962;9.614;2023-01-10T15:13:01;101262.97;;;6.17
72675;BMP280;60752;53.962;9.614;2023-01-10T15:18:22;101271.47;;;6.24
72675;BMP280;60752;53.962;9.614;2023-01-10T15:23:33;101270.91;;;6.22
72675;BMP280;60752;53.962;9.614;2023-01-10T15:28:34;101265.22;;;6.14
72675;BMP280;60752;53.962;9.614;2023-01-10T15:33:36;101265.69;;;6.11
72675;BMP280;60752;53.962;9.614;2023-01-10T15:38:43;101256.84;;;6.12
72675;BMP280;60752;53.962;9.614;2023-01-10T15:43:46;101250.75;;;6.06
72675;BMP280;60752;53.962;9.614;2023-01-10T15:49:01;101235.03;;;6.01
72675;BMP280;60752;53.962;9.614;2023-01-10T15:54:02;101222.22;;;5.88
72675;BMP280;60752;53.962;9.614;2023-01-10T15:59:04;101245.31;;;5.96
72675;BMP280;60752;53.962;9.614;2023-01-10T16:04:17;101228.22;;;5.88
72675;BMP280;60752;53.962;9.614;2023-01-10T16:09:21;101241.19;;;5.88
72675;BMP280;60752;53.962;9.614;2023-01-10T16:14:34;101223.38;;;5.80
72675;BMP280;60752;53.962;9.614;2023-01-10T16:19:38;101213.63;;;5.76
72675;BMP280;60752;53.962;9.614;2023-01-10T16:24:40;101209.44;;;5.75
72675;BMP280;60752;53.962;9.614;2023-01-10T16:29:41;101214.63;;;5.75
72675;BMP280;60752;53.962;9.614;2023-01-10T16:34:43;101220.78;;;5.80
72675;BMP280;60752;53.962;9.614;2023-01-10T16:39:46;101211.41;;;5.79
72675;BMP280;60752;53.962;9.614;2023-01-10T16:44:47;101194.78;;;5.68
72675;BMP280;60752;53.962;9.614;2023-01-10T16:49:49;101213.50;;;5.71
72675;BMP280;60752;53.962;9.614;2023-01-10T16:54:50;101210.72;;;5.72
72675;BMP280;60752;53.962;9.614;2023-01-10T16:59:52;101176.69;;;5.62
72675;BMP280;60752;53.962;9.614;2023-01-10T17:04:57;101175.09;;;5.61
72675;BMP280;60752;53.962;9.614;2023-01-10T17:09:58;101170.69;;;5.61
72675;BMP280;60752;53.962;9.614;2023-01-10T17:15:15;101160.66;;;5.65
72675;BMP280;60752;53.962;9.614;2023-01-10T17:20:22;101143.63;;;5.57
72675;BMP280;60752;53.962;9.614;2023-01-10T17:25:23;101137.94;;;5.60
72675;BMP280;60752;53.962;9.614;2023-01-10T17:30:23;101107.00;;;5.47
72675;BMP280;60752;53.962;9.614;2023-01-10T17:35:29;101119.47;;;5.57
72675;BMP280;60752;53.962;9.614;2023-01-10T17:40:30;101108.41;;;5.61
72675;BMP280;60752;53.962;9.614;2023-01-10T17:45:37;101083.13;;;5.45
72675;BMP280;60752;53.962;9.614;2023-01-10T17:50:41;101090.00;;;5.51
72675;BMP280;60752;53.962;9.614;2023-01-10T17:55:48;101081.41;;;5.51
72675;BMP280;60752;53.962;9.614;2023-01-10T18:00:55;101081.19;;;5.52
72675;BMP280;60752;53.962;9.614;2023-01-10T18:06:00;101071.25;;;5.49
72675;BMP280;60752;53.962;9.614;2023-01-10T18:11:04;101060.56;;;5.46
72675;BMP280;60752;53.962;9.614;2023-01-10T18:16:11;101048.59;;;5.45
72675;BMP280;60752;53.962;9.614;2023-01-10T18:21:19;101042.13;;;5.47
72675;BMP280;60752;53.962;9.614;2023-01-10T18:26:20;101039.78;;;5.46
72675;BMP280;60752;53.962;9.614;2023-01-10T18:31:20;101035.63;;;5.45
72675;BMP280;60752;53.962;9.614;2023-01-10T18:36:22;101028.63;;;5.45
72675;BMP280;60752;53.962;9.614;2023-01-10T18:41:23;101018.00;;;5.47
72675;BMP280;60752;53.962;9.614;2023-01-10T18:46:23;101019.03;;;5.46
72675;BMP280;60752;53.962;9.614;2023-01-10T18:51:37;101008.41;;;5.47
72675;BMP280;60752;53.962;9.614;2023-01-10T18:56:38;101009.44;;;5.46
72675;BMP280;60752;53.962;9.614;2023-01-10T19:01:38;100989.94;;;5.44
72675;BMP280;60752;53.962;9.614;2023-01-10T19:06:40;100974.56;;;5.42
72675;BMP280;60752;53.962;9.614;2023-01-10T19:11:40;100976.81;;;5.50
72675;BMP280;60752;53.962;9.614;2023-01-10T19:16:41;100964.88;;;5.49
72675;BMP280;60752;53.962;9.614;2023-01-10T19:21:43;100961.16;;;5.45
72675;BMP280;60752;53.962;9.614;2023-01-10T19:26:43;100968.56;;;5.53
72675;BMP280;60752;53.962;9.614;2023-01-10T19:31:44;100959.69;;;5.49
72675;BMP280;60752;53.962;9.614;2023-01-10T19:36:46;100956.84;;;5.51
72675;BMP280;60752;53.962;9.614;2023-01-10T19:41:48;100959.56;;;5.56
72675;BMP280;60752;53.962;9.614;2023-01-10T19:46:51;100953.25;;;5.52
72675;BMP280;60752;53.962;9.614;2023-01-10T19:51:53;100943.63;;;5.52
72675;BMP280;60752;53.962;9.614;2023-01-10T19:56:53;100942.75;;;5.47
72675;BMP280;60752;53.962;9.614;2023-01-10T20:01:54;100936.00;;;5.46
72675;BMP280;60752;53.962;9.614;2023-01-10T20:06:56;100910.94;;;5.39
72675;BMP280;60752;53.962;9.614;2023-01-10T20:11:56;100907.44;;;5.46
72675;BMP280;60752;53.962;9.614;2023-01-10T20:16:57;100882.03;;;5.36
72675;BMP280;60752;53.962;9.614;2023-01-10T20:21:59;100873.59;;;5.41
72675;BMP280;60752;53.962;9.614;2023-01-10T20:27:00;100859.94;;;5.33
72675;BMP280;60752;53.962;9.614;2023-01-10T20:32:01;100838.63;;;5.31
72675;BMP280;60752;53.962;9.614;2023-01-10T20:37:03;100819.03;;;5.24
72675;BMP280;60752;53.962;9.614;2023-01-10T20:42:03;100804.91;;;5.20
72675;BMP280;60752;53.962;9.614;2023-01-10T20:47:04;100777.44;;;5.19
72675;BMP280;60752;53.962;9.614;2023-01-10T20:52:06;100746.78;;;5.16
72675;BMP280;60752;53.962;9.614;2023-01-10T20:57:06;100746.00;;;5.15
72675;BMP280;60752;53.962;9.614;2023-01-10T21:02:09;100747.69;;;5.09
72675;BMP280;60752;53.962;9.614;2023-01-10T21:07:11;100730.31;;;5.10
72675;BMP280;60752;53.962;9.614;2023-01-10T21:12:11;100718.28;;;5.04
72675;BMP280;60752;53.962;9.614;2023-01-10T21:17:11;100700.03;;;4.99
72675;BMP280;60752;53.962;9.614;2023-01-10T21:22:13;100721.75;;;5.09
72675;BMP280;60752;53.962;9.614;2023-01-10T21:27:14;100718.03;;;5.05
72675;BMP280;60752;53.962;9.614;2023-01-10T21:32:14;100707.91;;;5.04
72675;BMP280;60752;53.962;9.614;2023-01-10T21:37:16;100695.56;;;5.11
72675;BMP280;60752;53.962;9.614;2023-01-10T21:42:17;100691.84;;;5.07
72675;BMP280;60752;53.962;9.614;2023-01-10T21:47:17;100665.72;;;5.08
72675;BMP280;60752;53.962;9.614;2023-01-10T21:52:19;100654.47;;;5.03
72675;BMP280;60752;53.962;9.614;2023-01-10T21:57:19;100649.59;;;5.06
72675;BMP280;60752;53.962;9.614;2023-01-10T22:02:21;100634.19;;;5.00
72675;BMP280;60752;53.962;9.614;2023-01-10T22:07:25;100617.59;;;5.01
72675;BMP280;60752;53.962;9.614;2023-01-10T22:12:26;100624.66;;;5.05
72675;BMP280;60752;53.962;9.614;2023-01-10T22:17:26;100597.09;;;4.99
72675;BMP280;60752;53.962;9.614;2023-01-10T22:22:28;100589.66;;;5.03
72675;BMP280;60752;53.962;9.614;2023-01-10T22:27:28;100596.03;;;5.12
72675;BMP280;60752;53.962;9.614;2023-01-10T22:32:29;100593.13;;;5.08
72675;BMP280;60752;53.962;9.614;2023-01-10T22:37:31;100564.53;;;5.03
72675;BMP280;60752;53.962;9.614;2023-01-10T22:42:31;100592.75;;;5.17
72675;BMP280;60752;53.962;9.614;2023-01-10T22:47:32;100562.06;;;5.14
72675;BMP280;60752;53.962;9.614;2023-01-10T22:52:33;100542.75;;;5.04
72675;BMP280;60752;53.962;9.614;2023-01-10T22:57:34;100557.13;;;5.12
72675;BMP280;60752;53.962;9.614;2023-01-10T23:02:34;100546.75;;;5.12
72675;BMP280;60752;53.962;9.614;2023-01-10T23:07:36;100532.22;;;5.11
72675;BMP280;60752;53.962;9.614;2023-01-10T23:12:36;100519.34;;;5.16
72675;BMP280;60752;53.962;9.614;2023-01-10T23:17:37;100500.84;;;5.13
72675;BMP280;60752;53.962;9.614;2023-01-10T23:22:39;100487.91;;;5.13
72675;BMP280;60752;53.962;9.614;2023-01-10T23:27:39;100499.44;;;5.22
72675;BMP280;60752;53.962;9.614;2023-01-10T23:32:39;100482.53;;;5.19
72675;BMP280;60752;53.962;9.614;2023-01-10T23:37:41;100467.47;;;5.16
72675;BMP280;60752;53.962;9.614;2023-01-10T23:42:42;100463.88;;;5.17
72675;BMP280;60752;53.962;9.614;2023-01-10T23:47:42;100455.84;;;5.19
72675;BMP280;60752;53.962;9.614;2023-01-10T23:52:44;100454.56;;;5.21
72675;BMP280;60752;53.962;9.614;2023-01-10T23:57:45;100454.88;;;5.25
